Blériot je v Kuněticích

19.02.24 Další významnou událost zaznamenala Letka Aviatické pouti ve čtvrtek 8. února. Za deštivého počasí byl na letiště v Kuněticích dovezen letoun Blériot XI, který se stane dalším z exponátů v připravované Expozici pardubického létání Celý článek

25 of 63 Odstartovaly přímé lety z Brna do Thajska, Dreamliner bude odlétat na Phuket každý týden

08.02.24 Z brněnského letiště odstartoval provoz dálkového letadla, který bude po celou zimní sezonu přepravovat každý týden cestující na oblíbený thajský ostrov Phuket. Cestovní kancelář Čedok ve spolupráci s leteckou společností Neos tak spustila v úterý 19. prosince 2023 večer první přímé spojení z Brna do exotiky. Thajsko je dlouhodobě populární destinací pro české turisty, kteří tak mohou nyní bez přestupu zamířit do hotelů nejen na Phuketu, ale také v oblasti Khao Laku. Celý článek

Zprávy

aktualizováno

24.02.24 Celý článek

Všechny zprávy    

Všechny články

Kurzy

Kalendář akcí

ICAO English Exam / Zkouška - každý pátek v měsíci
01.03.24 Online Worldwide Campus or Flying Academy Beranových 130 Praha
ICAO English Exam / Zkouška - každý pátek v měsíci
08.03.24 Online Worldwide Campus or Flying Academy Beranových 130 Praha
Austro Control Exam PPL / ATPL
12.03.24 Flying Academy Beranových 130 Praha
Austro Control Exam PPL / ATPL
13.03.24 Flying Academy Beranových 130 Praha
ICAO English Exam / Zkouška - každý pátek v měsíci
15.03.24 Online Worldwide Campus or Flying Academy Beranových 130 Praha

Všechny akce

Zeptejte se odborníka

Zkušený personál jedné z největších leteckých škol Flying Academy je připraven Vám pomoci s jakýmikoli otázkami týkajícími se letectví.

Zeptejte se

Newsletter

Přihlaste se k odběru novinek.

Aktuální počasí

LKKB
LKKB 240800Z 19012KT CAVOK 04/02 Q1003 NOSIG

LKKV
LKKV 240900Z 18006KT CAVOK 05/00 Q1002

LKMT
LKMT 240900Z 22012KT 9999 OVC012 05/03 Q1005 NOSIG

LKPR
LKPR 240900Z 17009KT 9999 FEW013 06/02 Q1004 NOSIG

LKTB
LKTB 240900Z 18004KT 150V230 9999 SCT013 06/02 Q1006 NOSIG

Briefing

Kurzy měn

AUD AUD 15.28 Kč
EUR EUR 25.22 Kč
GBP GBP 29.53 Kč
HUF HUF 6.51 Kč
CHF CHF 26.74 Kč
USD USD 23.41 Kč